首页
METAR-TAF:

METAR-TAF

机场 :

Linton-on-Ouse, 英格兰

纬度: 54-03N, 经度: 001-15W, 海拔: 16米

当前天气观测

该预报发布于37分钟前的00:50 UTC
风速2节,风向南转南东
温度 5°C
湿度 100%
气压 1004 hPa
能見度: 9000

METAR: EGXU 170050Z AUTO 15002KT 9000 // NCD 05/05 Q1004

时间: 02:27 (01:27 UTC)

预报

该预报发布于12小时和6分钟前的13:21 UTC
预报有效从16日的 15点(UTC)到 16日的 18点(UTC)
风速12节,风向西
能见度10公里或以上
少量云层高于2000英尺

TAF: EGXU 161321Z 1615/1618 27012KT 9999 FEW020

超过4000个机场的气象观测和天气预报(METAR&TAF报告)。

可查询的气象台以黄色和红色小点在地图上表示。

将鼠标移到小点上方,可查看气象台名称。

然后点击查看天气观测和预报。

如需切换地图:点击带黑十字的绿色按钮放大地图;点击带横线的绿色按钮缩小地图;或者点击绿色箭头查看邻近地区的地图。


METAR-TAF: